sensor_id;sensor_type;location;lat;lon;timestamp;P1;durP1;ratioP1;P2;durP2;ratioP2
55913;SDS011;58179;48.776;9.124;2023-06-10T00:02:18;9.20;;;7.28;;
55913;SDS011;58179;48.776;9.124;2023-06-10T00:04:44;8.10;;;7.10;;
55913;SDS011;58179;48.776;9.124;2023-06-10T00:07:10;8.45;;;7.25;;
55913;SDS011;58179;48.776;9.124;2023-06-10T00:09:36;9.02;;;7.07;;
55913;SDS011;58179;48.776;9.124;2023-06-10T00:12:03;8.05;;;6.72;;
55913;SDS011;58179;48.776;9.124;2023-06-10T00:14:31;10.15;;;7.30;;
55913;SDS011;58179;48.776;9.124;2023-06-10T00:16:58;8.43;;;7.13;;
55913;SDS011;58179;48.776;9.124;2023-06-10T00:19:25;11.73;;;8.05;;
55913;SDS011;58179;48.776;9.124;2023-06-10T00:21:53;9.38;;;7.38;;
55913;SDS011;58179;48.776;9.124;2023-06-10T00:24:20;10.50;;;7.75;;
55913;SDS011;58179;48.776;9.124;2023-06-10T00:26:46;7.47;;;6.57;;
55913;SDS011;58179;48.776;9.124;2023-06-10T00:29:12;10.55;;;7.60;;
55913;SDS011;58179;48.776;9.124;2023-06-10T00:31:39;11.63;;;7.63;;
55913;SDS011;58179;48.776;9.124;2023-06-10T00:34:05;11.30;;;7.03;;
55913;SDS011;58179;48.776;9.124;2023-06-10T00:36:33;10.45;;;7.78;;
55913;SDS011;58179;48.776;9.124;2023-06-10T00:39:00;8.87;;;7.50;;
55913;SDS011;58179;48.776;9.124;2023-06-10T00:41:27;10.60;;;7.57;;
55913;SDS011;58179;48.776;9.124;2023-06-10T00:43:54;8.32;;;6.93;;
55913;SDS011;58179;48.776;9.124;2023-06-10T00:46:20;8.73;;;7.57;;
55913;SDS011;58179;48.776;9.124;2023-06-10T00:48:48;10.30;;;7.43;;
55913;SDS011;58179;48.776;9.124;2023-06-10T00:51:15;11.38;;;7.40;;
55913;SDS011;58179;48.776;9.124;2023-06-10T00:53:44;11.45;;;7.90;;
55913;SDS011;58179;48.776;9.124;2023-06-10T00:56:11;7.93;;;7.13;;
55913;SDS011;58179;48.776;9.124;2023-06-10T00:58:38;10.52;;;7.63;;
55913;SDS011;58179;48.776;9.124;2023-06-10T01:01:04;10.52;;;8.32;;
55913;SDS011;58179;48.776;9.124;2023-06-10T01:03:30;8.88;;;7.25;;
55913;SDS011;58179;48.776;9.124;2023-06-10T01:06:04;9.82;;;7.78;;
55913;SDS011;58179;48.776;9.124;2023-06-10T01:08:38;11.57;;;8.43;;
55913;SDS011;58179;48.776;9.124;2023-06-10T01:11:13;10.43;;;7.97;;
55913;SDS011;58179;48.776;9.124;2023-06-10T01:13:44;9.50;;;7.32;;
55913;SDS011;58179;48.776;9.124;2023-06-10T01:16:13;11.23;;;8.48;;
55913;SDS011;58179;48.776;9.124;2023-06-10T01:18:40;12.43;;;8.40;;
55913;SDS011;58179;48.776;9.124;2023-06-10T01:21:07;9.68;;;7.85;;
55913;SDS011;58179;48.776;9.124;2023-06-10T01:23:35;10.27;;;8.25;;
55913;SDS011;58179;48.776;9.124;2023-06-10T01:26:02;10.93;;;8.27;;
55913;SDS011;58179;48.776;9.124;2023-06-10T01:28:36;9.27;;;7.95;;
55913;SDS011;58179;48.776;9.124;2023-06-10T01:31:13;9.60;;;8.07;;
55913;SDS011;58179;48.776;9.124;2023-06-10T01:33:49;9.40;;;7.72;;
55913;SDS011;58179;48.776;9.124;2023-06-10T01:36:19;9.85;;;7.97;;
55913;SDS011;58179;48.776;9.124;2023-06-10T01:38:48;10.23;;;7.88;;
55913;SDS011;58179;48.776;9.124;2023-06-10T01:41:17;9.52;;;8.07;;
55913;SDS011;58179;48.776;9.124;2023-06-10T01:43:46;9.63;;;8.30;;
55913;SDS011;58179;48.776;9.124;2023-06-10T01:46:13;8.75;;;7.28;;
55913;SDS011;58179;48.776;9.124;2023-06-10T01:48:40;10.20;;;7.67;;
55913;SDS011;58179;48.776;9.124;2023-06-10T01:51:07;9.40;;;7.40;;
55913;SDS011;58179;48.776;9.124;2023-06-10T01:53:33;9.52;;;7.43;;
55913;SDS011;58179;48.776;9.124;2023-06-10T01:56:01;9.15;;;7.50;;
55913;SDS011;58179;48.776;9.124;2023-06-10T01:58:27;13.90;;;8.25;;
55913;SDS011;58179;48.776;9.124;2023-06-10T02:00:53;11.30;;;8.02;;
55913;SDS011;58179;48.776;9.124;2023-06-10T02:03:19;9.43;;;7.47;;
55913;SDS011;58179;48.776;9.124;2023-06-10T02:05:45;8.70;;;6.95;;
55913;SDS011;58179;48.776;9.124;2023-06-10T02:08:12;10.40;;;7.43;;
55913;SDS011;58179;48.776;9.124;2023-06-10T02:10:38;9.50;;;7.72;;
55913;SDS011;58179;48.776;9.124;2023-06-10T02:13:07;8.57;;;7.60;;
55913;SDS011;58179;48.776;9.124;2023-06-10T02:15:33;12.57;;;8.30;;
55913;SDS011;58179;48.776;9.124;2023-06-10T02:18:00;8.70;;;7.32;;
55913;SDS011;58179;48.776;9.124;2023-06-10T02:20:26;11.82;;;7.68;;
55913;SDS011;58179;48.776;9.124;2023-06-10T02:22:52;9.48;;;7.28;;
55913;SDS011;58179;48.776;9.124;2023-06-10T02:25:18;10.05;;;7.60;;
55913;SDS011;58179;48.776;9.124;2023-06-10T02:27:45;10.35;;;7.05;;
55913;SDS011;58179;48.776;9.124;2023-06-10T02:30:12;8.30;;;7.00;;
55913;SDS011;58179;48.776;9.124;2023-06-10T02:32:40;7.88;;;6.97;;
55913;SDS011;58179;48.776;9.124;2023-06-10T02:35:06;9.38;;;7.25;;
55913;SDS011;58179;48.776;9.124;2023-06-10T02:37:33;11.17;;;7.70;;
55913;SDS011;58179;48.776;9.124;2023-06-10T02:39:59;8.30;;;7.07;;
55913;SDS011;58179;48.776;9.124;2023-06-10T02:42:25;8.90;;;7.45;;
55913;SDS011;58179;48.776;9.124;2023-06-10T02:44:51;9.13;;;7.23;;
55913;SDS011;58179;48.776;9.124;2023-06-10T02:47:19;8.45;;;7.13;;
55913;SDS011;58179;48.776;9.124;2023-06-10T02:49:45;9.55;;;7.32;;
55913;SDS011;58179;48.776;9.124;2023-06-10T02:52:11;9.65;;;7.10;;
55913;SDS011;58179;48.776;9.124;2023-06-10T02:54:37;9.40;;;7.57;;
55913;SDS011;58179;48.776;9.124;2023-06-10T02:57:04;9.27;;;7.20;;
55913;SDS011;58179;48.776;9.124;2023-06-10T02:59:31;10.40;;;7.15;;
55913;SDS011;58179;48.776;9.124;2023-06-10T03:01:57;8.43;;;7.45;;
55913;SDS011;58179;48.776;9.124;2023-06-10T03:04:27;9.05;;;7.10;;
55913;SDS011;58179;48.776;9.124;2023-06-10T03:06:54;10.57;;;7.88;;
55913;SDS011;58179;48.776;9.124;2023-06-10T03:09:21;8.90;;;7.40;;
55913;SDS011;58179;48.776;9.124;2023-06-10T03:11:47;9.93;;;7.20;;
55913;SDS011;58179;48.776;9.124;2023-06-10T03:14:13;9.10;;;6.90;;
55913;SDS011;58179;48.776;9.124;2023-06-10T03:16:39;11.23;;;7.77;;
55913;SDS011;58179;48.776;9.124;2023-06-10T03:19:05;8.85;;;7.20;;
55913;SDS011;58179;48.776;9.124;2023-06-10T03:21:33;11.20;;;7.25;;
55913;SDS011;58179;48.776;9.124;2023-06-10T03:24:00;9.47;;;7.50;;
55913;SDS011;58179;48.776;9.124;2023-06-10T03:26:26;8.67;;;6.97;;
55913;SDS011;58179;48.776;9.124;2023-06-10T03:28:53;10.27;;;7.43;;
55913;SDS011;58179;48.776;9.124;2023-06-10T03:31:19;8.70;;;7.30;;
55913;SDS011;58179;48.776;9.124;2023-06-10T03:33:45;9.68;;;7.40;;
55913;SDS011;58179;48.776;9.124;2023-06-10T03:36:11;8.90;;;7.43;;
55913;SDS011;58179;48.776;9.124;2023-06-10T03:38:39;11.90;;;7.70;;
55913;SDS011;58179;48.776;9.124;2023-06-10T03:41:05;10.48;;;8.20;;
55913;SDS011;58179;48.776;9.124;2023-06-10T03:43:31;10.15;;;7.07;;
55913;SDS011;58179;48.776;9.124;2023-06-10T03:45:58;9.07;;;7.80;;
55913;SDS011;58179;48.776;9.124;2023-06-10T03:48:24;9.77;;;7.57;;
55913;SDS011;58179;48.776;9.124;2023-06-10T03:50:51;9.27;;;7.50;;
55913;SDS011;58179;48.776;9.124;2023-06-10T03:53:17;9.93;;;7.63;;
55913;SDS011;58179;48.776;9.124;2023-06-10T03:55:45;10.60;;;8.30;;
55913;SDS011;58179;48.776;9.124;2023-06-10T03:58:11;9.77;;;8.03;;
55913;SDS011;58179;48.776;9.124;2023-06-10T04:00:40;9.67;;;7.77;;
55913;SDS011;58179;48.776;9.124;2023-06-10T04:03:06;10.30;;;7.50;;
55913;SDS011;58179;48.776;9.124;2023-06-10T04:05:34;10.05;;;7.82;;
55913;SDS011;58179;48.776;9.124;2023-06-10T04:08:00;9.32;;;7.55;;
55913;SDS011;58179;48.776;9.124;2023-06-10T04:10:26;9.47;;;7.60;;
55913;SDS011;58179;48.776;9.124;2023-06-10T04:12:54;10.40;;;7.80;;
55913;SDS011;58179;48.776;9.124;2023-06-10T04:15:20;8.93;;;7.57;;
55913;SDS011;58179;48.776;9.124;2023-06-10T04:17:46;8.48;;;6.97;;
55913;SDS011;58179;48.776;9.124;2023-06-10T04:20:14;9.25;;;7.80;;
55913;SDS011;58179;48.776;9.124;2023-06-10T04:22:40;9.05;;;7.75;;
55913;SDS011;58179;48.776;9.124;2023-06-10T04:25:08;10.10;;;7.80;;
55913;SDS011;58179;48.776;9.124;2023-06-10T04:27:34;9.07;;;7.45;;
55913;SDS011;58179;48.776;9.124;2023-06-10T04:30:02;10.57;;;8.20;;
55913;SDS011;58179;48.776;9.124;2023-06-10T04:32:29;10.13;;;7.80;;
55913;SDS011;58179;48.776;9.124;2023-06-10T04:34:55;9.18;;;7.82;;
55913;SDS011;58179;48.776;9.124;2023-06-10T04:37:21;10.55;;;7.93;;
55913;SDS011;58179;48.776;9.124;2023-06-10T04:39:47;8.82;;;7.53;;
55913;SDS011;58179;48.776;9.124;2023-06-10T04:42:14;9.05;;;7.38;;
55913;SDS011;58179;48.776;9.124;2023-06-10T04:44:40;12.02;;;7.85;;
55913;SDS011;58179;48.776;9.124;2023-06-10T04:47:08;8.60;;;7.15;;
55913;SDS011;58179;48.776;9.124;2023-06-10T04:49:34;8.10;;;7.17;;
55913;SDS011;58179;48.776;9.124;2023-06-10T04:52:00;9.10;;;7.85;;
55913;SDS011;58179;48.776;9.124;2023-06-10T04:54:29;8.80;;;7.57;;
55913;SDS011;58179;48.776;9.124;2023-06-10T04:56:55;9.23;;;7.72;;
55913;SDS011;58179;48.776;9.124;2023-06-10T04:59:21;8.85;;;7.15;;
55913;SDS011;58179;48.776;9.124;2023-06-10T05:01:47;8.90;;;7.10;;
55913;SDS011;58179;48.776;9.124;2023-06-10T05:04:15;7.75;;;6.75;;
55913;SDS011;58179;48.776;9.124;2023-06-10T05:06:41;7.43;;;6.47;;
55913;SDS011;58179;48.776;9.124;2023-06-10T05:09:07;7.00;;;5.97;;
55913;SDS011;58179;48.776;9.124;2023-06-10T05:11:34;6.47;;;5.55;;
55913;SDS011;58179;48.776;9.124;2023-06-10T05:14:00;7.25;;;6.18;;
55913;SDS011;58179;48.776;9.124;2023-06-10T05:16:26;7.60;;;6.32;;
55913;SDS011;58179;48.776;9.124;2023-06-10T05:18:53;10.13;;;7.40;;
55913;SDS011;58179;48.776;9.124;2023-06-10T05:21:20;7.60;;;6.60;;
55913;SDS011;58179;48.776;9.124;2023-06-10T05:23:46;8.77;;;7.20;;
55913;SDS011;58179;48.776;9.124;2023-06-10T05:26:12;7.50;;;6.43;;
55913;SDS011;58179;48.776;9.124;2023-06-10T05:28:39;8.05;;;6.20;;
55913;SDS011;58179;48.776;9.124;2023-06-10T05:31:05;6.88;;;6.03;;
55913;SDS011;58179;48.776;9.124;2023-06-10T05:33:31;6.43;;;5.70;;
55913;SDS011;58179;48.776;9.124;2023-06-10T05:35:57;6.77;;;5.50;;
55913;SDS011;58179;48.776;9.124;2023-06-10T05:38:25;6.97;;;5.45;;
55913;SDS011;58179;48.776;9.124;2023-06-10T05:40:51;7.57;;;6.00;;
55913;SDS011;58179;48.776;9.124;2023-06-10T05:43:17;6.38;;;5.72;;
55913;SDS011;58179;48.776;9.124;2023-06-10T05:45:44;7.28;;;6.00;;
55913;SDS011;58179;48.776;9.124;2023-06-10T05:48:10;5.90;;;5.15;;
55913;SDS011;58179;48.776;9.124;2023-06-10T05:50:36;6.80;;;5.53;;
55913;SDS011;58179;48.776;9.124;2023-06-10T05:53:05;6.25;;;5.25;;
55913;SDS011;58179;48.776;9.124;2023-06-10T05:55:34;7.45;;;6.25;;
55913;SDS011;58179;48.776;9.124;2023-06-10T05:58:01;6.80;;;5.50;;
55913;SDS011;58179;48.776;9.124;2023-06-10T06:00:27;9.00;;;6.75;;
55913;SDS011;58179;48.776;9.124;2023-06-10T06:02:53;7.93;;;5.90;;
55913;SDS011;58179;48.776;9.124;2023-06-10T06:05:20;6.40;;;5.60;;
55913;SDS011;58179;48.776;9.124;2023-06-10T06:07:46;9.05;;;5.60;;
55913;SDS011;58179;48.776;9.124;2023-06-10T06:10:13;6.32;;;5.40;;
55913;SDS011;58179;48.776;9.124;2023-06-10T06:12:40;6.53;;;5.50;;
55913;SDS011;58179;48.776;9.124;2023-06-10T06:15:07;6.78;;;5.70;;
55913;SDS011;58179;48.776;9.124;2023-06-10T06:17:34;6.43;;;5.10;;
55913;SDS011;58179;48.776;9.124;2023-06-10T06:20:00;6.47;;;5.50;;
55913;SDS011;58179;48.776;9.124;2023-06-10T06:22:26;7.43;;;6.13;;
55913;SDS011;58179;48.776;9.124;2023-06-10T06:24:52;6.57;;;5.05;;
55913;SDS011;58179;48.776;9.124;2023-06-10T06:27:19;7.80;;;5.50;;
55913;SDS011;58179;48.776;9.124;2023-06-10T06:29:47;7.32;;;6.00;;
55913;SDS011;58179;48.776;9.124;2023-06-10T06:32:13;6.70;;;5.97;;
55913;SDS011;58179;48.776;9.124;2023-06-10T06:34:40;6.73;;;5.60;;
55913;SDS011;58179;48.776;9.124;2023-06-10T06:37:06;7.20;;;5.90;;
55913;SDS011;58179;48.776;9.124;2023-06-10T06:39:32;7.13;;;6.32;;
55913;SDS011;58179;48.776;9.124;2023-06-10T06:41:58;7.43;;;6.03;;
55913;SDS011;58179;48.776;9.124;2023-06-10T06:44:24;7.90;;;5.90;;
55913;SDS011;58179;48.776;9.124;2023-06-10T06:46:52;9.20;;;6.78;;
55913;SDS011;58179;48.776;9.124;2023-06-10T06:49:18;8.30;;;6.57;;
55913;SDS011;58179;48.776;9.124;2023-06-10T06:51:44;6.77;;;5.93;;
55913;SDS011;58179;48.776;9.124;2023-06-10T06:54:10;9.95;;;6.55;;
55913;SDS011;58179;48.776;9.124;2023-06-10T06:56:37;11.90;;;6.22;;
55913;SDS011;58179;48.776;9.124;2023-06-10T06:59:03;7.22;;;6.00;;
55913;SDS011;58179;48.776;9.124;2023-06-10T07:01:30;7.63;;;5.97;;
55913;SDS011;58179;48.776;9.124;2023-06-10T07:03:59;9.37;;;6.30;;
55913;SDS011;58179;48.776;9.124;2023-06-10T07:06:26;8.52;;;5.82;;
55913;SDS011;58179;48.776;9.124;2023-06-10T07:08:52;9.33;;;6.70;;
55913;SDS011;58179;48.776;9.124;2023-06-10T07:11:18;7.80;;;5.95;;
55913;SDS011;58179;48.776;9.124;2023-06-10T07:13:45;7.00;;;6.10;;
55913;SDS011;58179;48.776;9.124;2023-06-10T07:16:11;9.85;;;7.10;;
55913;SDS011;58179;48.776;9.124;2023-06-10T07:18:37;9.65;;;6.07;;
55913;SDS011;58179;48.776;9.124;2023-06-10T07:21:05;6.38;;;5.53;;
55913;SDS011;58179;48.776;9.124;2023-06-10T07:23:31;6.30;;;5.32;;
55913;SDS011;58179;48.776;9.124;2023-06-10T07:25:57;5.75;;;5.07;;
55913;SDS011;58179;48.776;9.124;2023-06-10T07:28:23;7.70;;;5.20;;
55913;SDS011;58179;48.776;9.124;2023-06-10T07:30:50;8.27;;;6.53;;
55913;SDS011;58179;48.776;9.124;2023-06-10T07:33:16;8.82;;;6.18;;
55913;SDS011;58179;48.776;9.124;2023-06-10T07:35:42;7.07;;;5.53;;
55913;SDS011;58179;48.776;9.124;2023-06-10T07:38:10;6.35;;;5.47;;
55913;SDS011;58179;48.776;9.124;2023-06-10T07:40:36;8.45;;;5.85;;
55913;SDS011;58179;48.776;9.124;2023-06-10T07:43:02;7.10;;;5.80;;
55913;SDS011;58179;48.776;9.124;2023-06-10T07:45:28;7.70;;;6.15;;
55913;SDS011;58179;48.776;9.124;2023-06-10T07:47:55;6.05;;;5.13;;
55913;SDS011;58179;48.776;9.124;2023-06-10T07:50:21;6.47;;;5.53;;
55913;SDS011;58179;48.776;9.124;2023-06-10T07:52:47;8.40;;;5.47;;
55913;SDS011;58179;48.776;9.124;2023-06-10T07:55:15;6.13;;;5.20;;
55913;SDS011;58179;48.776;9.124;2023-06-10T07:57:41;7.13;;;5.68;;
55913;SDS011;58179;48.776;9.124;2023-06-10T08:00:08;6.22;;;5.22;;
55913;SDS011;58179;48.776;9.124;2023-06-10T08:02:34;5.50;;;5.00;;
55913;SDS011;58179;48.776;9.124;2023-06-10T08:05:01;7.30;;;5.88;;
55913;SDS011;58179;48.776;9.124;2023-06-10T08:07:27;6.65;;;5.78;;
55913;SDS011;58179;48.776;9.124;2023-06-10T08:09:53;8.68;;;6.13;;
55913;SDS011;58179;48.776;9.124;2023-06-10T08:12:21;6.72;;;5.63;;
55913;SDS011;58179;48.776;9.124;2023-06-10T08:14:47;8.05;;;5.70;;
55913;SDS011;58179;48.776;9.124;2023-06-10T08:17:13;6.73;;;5.57;;
55913;SDS011;58179;48.776;9.124;2023-06-10T08:19:39;8.73;;;5.97;;
55913;SDS011;58179;48.776;9.124;2023-06-10T08:22:05;6.95;;;5.95;;
55913;SDS011;58179;48.776;9.124;2023-06-10T08:24:32;6.13;;;5.30;;
55913;SDS011;58179;48.776;9.124;2023-06-10T08:26:59;6.40;;;5.50;;
55913;SDS011;58179;48.776;9.124;2023-06-10T08:29:26;7.35;;;5.53;;
55913;SDS011;58179;48.776;9.124;2023-06-10T08:31:52;6.65;;;5.65;;
55913;SDS011;58179;48.776;9.124;2023-06-10T08:34:19;8.07;;;6.18;;
55913;SDS011;58179;48.776;9.124;2023-06-10T08:36:45;7.55;;;5.60;;
55913;SDS011;58179;48.776;9.124;2023-06-10T08:39:11;5.90;;;5.30;;
55913;SDS011;58179;48.776;9.124;2023-06-10T08:41:43;6.65;;;5.30;;
55913;SDS011;58179;48.776;9.124;2023-06-10T08:44:16;8.88;;;5.75;;
55913;SDS011;58179;48.776;9.124;2023-06-10T08:46:48;7.10;;;5.55;;
55913;SDS011;58179;48.776;9.124;2023-06-10T08:49:17;7.47;;;5.60;;
55913;SDS011;58179;48.776;9.124;2023-06-10T08:51:46;6.03;;;5.38;;
55913;SDS011;58179;48.776;9.124;2023-06-10T08:54:15;6.90;;;5.70;;
55913;SDS011;58179;48.776;9.124;2023-06-10T08:56:47;6.65;;;5.20;;
55913;SDS011;58179;48.776;9.124;2023-06-10T08:59:18;6.82;;;5.30;;
55913;SDS011;58179;48.776;9.124;2023-06-10T09:01:45;8.32;;;5.43;;
55913;SDS011;58179;48.776;9.124;2023-06-10T09:04:13;7.10;;;5.35;;
55913;SDS011;58179;48.776;9.124;2023-06-10T09:06:41;5.97;;;4.82;;
55913;SDS011;58179;48.776;9.124;2023-06-10T09:09:07;7.22;;;5.18;;
55913;SDS011;58179;48.776;9.124;2023-06-10T09:11:33;5.57;;;4.73;;
55913;SDS011;58179;48.776;9.124;2023-06-10T09:14:00;8.63;;;4.82;;
55913;SDS011;58179;48.776;9.124;2023-06-10T09:16:27;12.15;;;5.20;;
55913;SDS011;58179;48.776;9.124;2023-06-10T09:18:53;5.82;;;4.75;;
55913;SDS011;58179;48.776;9.124;2023-06-10T09:21:22;6.30;;;5.13;;
55913;SDS011;58179;48.776;9.124;2023-06-10T09:23:48;6.38;;;4.88;;
55913;SDS011;58179;48.776;9.124;2023-06-10T09:26:15;8.93;;;4.82;;
55913;SDS011;58179;48.776;9.124;2023-06-10T09:28:41;7.90;;;5.00;;
55913;SDS011;58179;48.776;9.124;2023-06-10T09:31:09;11.05;;;4.65;;
55913;SDS011;58179;48.776;9.124;2023-06-10T09:33:37;6.70;;;4.68;;
55913;SDS011;58179;48.776;9.124;2023-06-10T09:36:06;6.40;;;4.75;;
55913;SDS011;58179;48.776;9.124;2023-06-10T09:38:34;8.15;;;4.88;;
55913;SDS011;58179;48.776;9.124;2023-06-10T09:41:00;8.68;;;4.97;;
55913;SDS011;58179;48.776;9.124;2023-06-10T09:43:40;6.57;;;4.70;;
55913;SDS011;58179;48.776;9.124;2023-06-10T09:46:13;5.30;;;4.25;;
55913;SDS011;58179;48.776;9.124;2023-06-10T09:48:41;9.63;;;4.30;;
55913;SDS011;58179;48.776;9.124;2023-06-10T09:51:09;5.20;;;4.40;;
55913;SDS011;58179;48.776;9.124;2023-06-10T09:53:37;5.93;;;4.83;;
55913;SDS011;58179;48.776;9.124;2023-06-10T09:56:03;5.32;;;4.60;;
55913;SDS011;58179;48.776;9.124;2023-06-10T09:58:33;7.78;;;4.50;;
55913;SDS011;58179;48.776;9.124;2023-06-10T10:01:03;8.82;;;5.47;;
55913;SDS011;58179;48.776;9.124;2023-06-10T10:03:30;5.78;;;4.47;;
55913;SDS011;58179;48.776;9.124;2023-06-10T10:05:57;6.18;;;4.07;;
55913;SDS011;58179;48.776;9.124;2023-06-10T10:08:25;4.70;;;4.20;;
55913;SDS011;58179;48.776;9.124;2023-06-10T10:10:53;5.35;;;4.80;;
55913;SDS011;58179;48.776;9.124;2023-06-10T10:13:21;4.50;;;4.10;;
55913;SDS011;58179;48.776;9.124;2023-06-10T10:15:49;7.80;;;4.65;;
55913;SDS011;58179;48.776;9.124;2023-06-10T10:18:16;6.80;;;5.20;;
55913;SDS011;58179;48.776;9.124;2023-06-10T10:20:50;4.90;;;4.40;;
55913;SDS011;58179;48.776;9.124;2023-06-10T10:23:21;6.20;;;4.47;;
55913;SDS011;58179;48.776;9.124;2023-06-10T10:25:53;6.68;;;4.95;;
55913;SDS011;58179;48.776;9.124;2023-06-10T10:28:23;5.65;;;4.65;;
55913;SDS011;58179;48.776;9.124;2023-06-10T10:30:56;6.07;;;4.45;;
55913;SDS011;58179;48.776;9.124;2023-06-10T10:33:33;4.88;;;4.38;;
55913;SDS011;58179;48.776;9.124;2023-06-10T10:36:07;5.10;;;4.60;;
55913;SDS011;58179;48.776;9.124;2023-06-10T10:38:34;6.55;;;4.35;;
55913;SDS011;58179;48.776;9.124;2023-06-10T10:41:02;5.40;;;4.50;;
55913;SDS011;58179;48.776;9.124;2023-06-10T10:43:29;5.53;;;4.40;;
55913;SDS011;58179;48.776;9.124;2023-06-10T10:45:59;5.10;;;4.10;;
55913;SDS011;58179;48.776;9.124;2023-06-10T10:48:25;5.50;;;4.22;;
55913;SDS011;58179;48.776;9.124;2023-06-10T10:50:58;5.63;;;4.40;;
55913;SDS011;58179;48.776;9.124;2023-06-10T10:53:24;4.68;;;3.75;;
55913;SDS011;58179;48.776;9.124;2023-06-10T10:55:57;5.50;;;4.70;;
55913;SDS011;58179;48.776;9.124;2023-06-10T10:58:26;6.45;;;4.93;;
55913;SDS011;58179;48.776;9.124;2023-06-10T11:00:52;6.60;;;4.45;;
55913;SDS011;58179;48.776;9.124;2023-06-10T11:03:18;5.45;;;4.30;;
55913;SDS011;58179;48.776;9.124;2023-06-10T11:05:46;5.27;;;4.60;;
55913;SDS011;58179;48.776;9.124;2023-06-10T11:08:13;9.40;;;5.10;;
55913;SDS011;58179;48.776;9.124;2023-06-10T11:11:00;6.97;;;4.77;;
55913;SDS011;58179;48.776;9.124;2023-06-10T11:13:43;6.25;;;4.40;;
55913;SDS011;58179;48.776;9.124;2023-06-10T11:16:25;6.35;;;4.72;;
55913;SDS011;58179;48.776;9.124;2023-06-10T11:18:53;4.38;;;3.85;;
55913;SDS011;58179;48.776;9.124;2023-06-10T11:21:20;5.10;;;4.32;;
55913;SDS011;58179;48.776;9.124;2023-06-10T11:23:48;7.05;;;4.80;;
55913;SDS011;58179;48.776;9.124;2023-06-10T11:26:18;6.90;;;4.95;;
55913;SDS011;58179;48.776;9.124;2023-06-10T11:29:06;5.07;;;4.30;;
55913;SDS011;58179;48.776;9.124;2023-06-10T11:31:35;5.10;;;4.10;;
55913;SDS011;58179;48.776;9.124;2023-06-10T11:34:08;6.82;;;4.45;;
55913;SDS011;58179;48.776;9.124;2023-06-10T11:36:36;5.15;;;4.20;;
55913;SDS011;58179;48.776;9.124;2023-06-10T11:39:05;5.75;;;4.47;;
55913;SDS011;58179;48.776;9.124;2023-06-10T11:41:32;5.68;;;4.35;;
55913;SDS011;58179;48.776;9.124;2023-06-10T11:44:00;6.63;;;4.30;;
55913;SDS011;58179;48.776;9.124;2023-06-10T11:46:29;6.03;;;4.50;;
55913;SDS011;58179;48.776;9.124;2023-06-10T11:48:56;6.87;;;4.83;;
55913;SDS011;58179;48.776;9.124;2023-06-10T11:51:24;4.75;;;4.00;;
55913;SDS011;58179;48.776;9.124;2023-06-10T11:53:52;6.88;;;4.43;;
55913;SDS011;58179;48.776;9.124;2023-06-10T11:56:19;4.72;;;4.13;;
55913;SDS011;58179;48.776;9.124;2023-06-10T11:58:46;4.43;;;4.03;;
55913;SDS011;58179;48.776;9.124;2023-06-10T12:01:19;4.50;;;4.10;;
55913;SDS011;58179;48.776;9.124;2023-06-10T12:03:50;5.28;;;3.97;;
55913;SDS011;58179;48.776;9.124;2023-06-10T12:06:23;6.45;;;4.20;;
55913;SDS011;58179;48.776;9.124;2023-06-10T12:08:49;5.73;;;4.43;;
55913;SDS011;58179;48.776;9.124;2023-06-10T12:11:15;5.50;;;4.77;;
55913;SDS011;58179;48.776;9.124;2023-06-10T12:13:45;4.55;;;4.07;;
55913;SDS011;58179;48.776;9.124;2023-06-10T12:16:15;5.00;;;4.10;;
55913;SDS011;58179;48.776;9.124;2023-06-10T12:18:43;5.65;;;4.00;;
55913;SDS011;58179;48.776;9.124;2023-06-10T12:21:23;5.40;;;4.43;;
55913;SDS011;58179;48.776;9.124;2023-06-10T12:24:02;5.03;;;4.53;;
55913;SDS011;58179;48.776;9.124;2023-06-10T12:26:34;21.42;;;16.90;;
55913;SDS011;58179;48.776;9.124;2023-06-10T12:29:01;50.63;;;37.75;;
55913;SDS011;58179;48.776;9.124;2023-06-10T12:31:51;19.50;;;14.18;;
55913;SDS011;58179;48.776;9.124;2023-06-10T12:34:31;12.25;;;7.70;;
55913;SDS011;58179;48.776;9.124;2023-06-10T12:37:02;8.23;;;6.55;;
55913;SDS011;58179;48.776;9.124;2023-06-10T12:39:29;8.95;;;5.10;;
55913;SDS011;58179;48.776;9.124;2023-06-10T12:41:56;16.58;;;10.35;;
55913;SDS011;58179;48.776;9.124;2023-06-10T12:44:30;7.32;;;5.60;;
55913;SDS011;58179;48.776;9.124;2023-06-10T12:46:57;7.00;;;5.13;;
55913;SDS011;58179;48.776;9.124;2023-06-10T12:49:24;6.00;;;4.37;;
55913;SDS011;58179;48.776;9.124;2023-06-10T12:51:52;8.27;;;5.35;;
55913;SDS011;58179;48.776;9.124;2023-06-10T12:54:20;4.90;;;3.97;;
55913;SDS011;58179;48.776;9.124;2023-06-10T12:56:46;6.53;;;4.35;;
55913;SDS011;58179;48.776;9.124;2023-06-10T12:59:13;4.72;;;4.20;;
55913;SDS011;58179;48.776;9.124;2023-06-10T13:01:39;6.53;;;4.40;;
55913;SDS011;58179;48.776;9.124;2023-06-10T13:04:05;8.50;;;5.20;;
55913;SDS011;58179;48.776;9.124;2023-06-10T13:06:32;7.20;;;4.35;;
55913;SDS011;58179;48.776;9.124;2023-06-10T13:09:01;5.07;;;3.63;;
55913;SDS011;58179;48.776;9.124;2023-06-10T13:11:30;4.63;;;3.60;;
55913;SDS011;58179;48.776;9.124;2023-06-10T13:13:58;5.28;;;3.72;;
55913;SDS011;58179;48.776;9.124;2023-06-10T13:16:25;6.97;;;4.00;;
55913;SDS011;58179;48.776;9.124;2023-06-10T13:18:52;4.30;;;3.50;;
55913;SDS011;58179;48.776;9.124;2023-06-10T13:21:18;6.65;;;4.10;;
55913;SDS011;58179;48.776;9.124;2023-06-10T13:23:45;4.82;;;3.70;;
55913;SDS011;58179;48.776;9.124;2023-06-10T13:26:13;4.47;;;3.70;;
55913;SDS011;58179;48.776;9.124;2023-06-10T13:28:42;3.97;;;3.58;;
55913;SDS011;58179;48.776;9.124;2023-06-10T13:31:10;4.90;;;3.80;;
55913;SDS011;58179;48.776;9.124;2023-06-10T13:33:36;5.50;;;3.70;;
55913;SDS011;58179;48.776;9.124;2023-06-10T13:36:03;4.50;;;3.43;;
55913;SDS011;58179;48.776;9.124;2023-06-10T13:38:30;3.80;;;3.42;;
55913;SDS011;58179;48.776;9.124;2023-06-10T13:40:56;4.00;;;3.35;;
55913;SDS011;58179;48.776;9.124;2023-06-10T13:43:22;5.10;;;3.53;;
55913;SDS011;58179;48.776;9.124;2023-06-10T13:45:50;5.72;;;3.38;;
55913;SDS011;58179;48.776;9.124;2023-06-10T13:48:16;5.40;;;3.28;;
55913;SDS011;58179;48.776;9.124;2023-06-10T13:50:45;3.10;;;2.70;;
55913;SDS011;58179;48.776;9.124;2023-06-10T13:53:14;3.05;;;2.70;;
55913;SDS011;58179;48.776;9.124;2023-06-10T13:55:40;4.45;;;2.70;;
55913;SDS011;58179;48.776;9.124;2023-06-10T13:58:06;3.30;;;3.00;;
55913;SDS011;58179;48.776;9.124;2023-06-10T14:00:32;3.40;;;3.10;;
55913;SDS011;58179;48.776;9.124;2023-06-10T14:03:00;4.72;;;3.15;;
55913;SDS011;58179;48.776;9.124;2023-06-10T14:05:28;3.80;;;3.42;;
55913;SDS011;58179;48.776;9.124;2023-06-10T14:07:54;4.47;;;3.50;;
55913;SDS011;58179;48.776;9.124;2023-06-10T14:10:21;5.50;;;3.60;;
55913;SDS011;58179;48.776;9.124;2023-06-10T14:12:47;4.03;;;3.33;;
55913;SDS011;58179;48.776;9.124;2023-06-10T14:15:14;3.90;;;3.55;;
55913;SDS011;58179;48.776;9.124;2023-06-10T14:17:40;5.65;;;3.63;;
55913;SDS011;58179;48.776;9.124;2023-06-10T14:20:08;4.32;;;3.50;;
55913;SDS011;58179;48.776;9.124;2023-06-10T14:22:36;5.10;;;3.75;;
55913;SDS011;58179;48.776;9.124;2023-06-10T14:25:03;3.88;;;3.47;;
55913;SDS011;58179;48.776;9.124;2023-06-10T14:27:31;4.55;;;3.42;;
55913;SDS011;58179;48.776;9.124;2023-06-10T14:29:57;5.03;;;3.75;;
55913;SDS011;58179;48.776;9.124;2023-06-10T14:32:24;3.85;;;3.45;;
55913;SDS011;58179;48.776;9.124;2023-06-10T14:34:50;3.72;;;3.20;;
55913;SDS011;58179;48.776;9.124;2023-06-10T14:37:17;3.80;;;3.15;;
55913;SDS011;58179;48.776;9.124;2023-06-10T14:39:45;5.55;;;3.20;;
55913;SDS011;58179;48.776;9.124;2023-06-10T14:42:11;3.58;;;3.15;;
55913;SDS011;58179;48.776;9.124;2023-06-10T14:44:37;5.55;;;3.00;;
55913;SDS011;58179;48.776;9.124;2023-06-10T14:47:04;3.75;;;3.03;;
55913;SDS011;58179;48.776;9.124;2023-06-10T14:49:30;3.13;;;2.85;;